createdAt,value
2023-03-12T00:02:58.960Z,7.07
2023-03-12T00:06:10.275Z,13.57
2023-03-12T00:09:13.714Z,7.70
2023-03-12T00:12:17.058Z,11.10
2023-03-12T00:15:19.907Z,8.02
2023-03-12T00:18:23.524Z,7.68
2023-03-12T00:21:26.185Z,8.30
2023-03-12T00:24:29.422Z,10.98
2023-03-12T00:27:32.330Z,8.02
2023-03-12T00:30:34.908Z,10.00
2023-03-12T00:33:38.592Z,12.20
2023-03-12T00:36:41.350Z,8.23
2023-03-12T00:39:44.510Z,9.15
2023-03-12T00:42:46.876Z,12.25
2023-03-12T00:45:49.356Z,8.55
2023-03-12T00:48:53.062Z,11.77
2023-03-12T00:51:55.832Z,7.93
2023-03-12T00:54:58.893Z,7.65
2023-03-12T00:58:01.379Z,9.05
2023-03-12T01:01:05.018Z,11.52
2023-03-12T01:04:09.020Z,8.00
2023-03-12T01:07:11.378Z,8.05
2023-03-12T01:10:16.844Z,9.27
2023-03-12T01:13:21.614Z,14.00
2023-03-12T01:16:28.081Z,11.77
2023-03-12T01:19:31.833Z,13.35
2023-03-12T01:22:34.200Z,8.88
2023-03-12T01:25:36.961Z,9.57
2023-03-12T01:28:39.540Z,5.85
2023-03-12T01:31:41.893Z,13.60
2023-03-12T01:34:45.622Z,9.00
2023-03-12T01:37:47.902Z,10.23
2023-03-12T01:40:50.546Z,11.18
2023-03-12T01:43:52.846Z,8.20
2023-03-12T01:46:55.643Z,13.48
2023-03-12T01:50:02.105Z,8.95
2023-03-12T01:53:04.971Z,9.07
2023-03-12T01:56:08.659Z,8.75
2023-03-12T01:59:14.662Z,10.15
2023-03-12T02:02:19.974Z,5.95
2023-03-12T02:05:27.312Z,11.93
2023-03-12T02:08:30.437Z,6.40
2023-03-12T02:11:33.697Z,11.60
2023-03-12T02:14:36.817Z,7.40
2023-03-12T02:17:40.426Z,6.88
2023-03-12T02:20:49.982Z,9.02
2023-03-12T02:23:58.836Z,7.03
2023-03-12T02:27:05.902Z,5.68
2023-03-12T02:30:09.803Z,8.50
2023-03-12T02:33:12.778Z,7.80
2023-03-12T02:36:15.505Z,5.97
2023-03-12T02:39:18.846Z,6.93
2023-03-12T02:42:23.357Z,7.10
2023-03-12T02:45:27.882Z,5.35
2023-03-12T02:48:32.755Z,7.10
2023-03-12T02:51:35.512Z,4.78
2023-03-12T02:54:38.039Z,4.63
2023-03-12T02:57:43.734Z,6.82
2023-03-12T03:00:49.201Z,8.55
2023-03-12T03:03:53.446Z,6.95
2023-03-12T03:06:55.947Z,7.20
2023-03-12T03:10:03.966Z,6.13
2023-03-12T03:13:08.394Z,4.75
2023-03-12T03:16:12.465Z,5.15
2023-03-12T03:19:15.065Z,6.28
2023-03-12T03:22:18.079Z,7.18
2023-03-12T03:25:23.176Z,5.80
2023-03-12T03:28:29.071Z,11.48
2023-03-12T03:31:32.077Z,4.05
2023-03-12T03:34:34.673Z,10.20
2023-03-12T03:37:37.060Z,5.75
2023-03-12T03:40:39.591Z,6.93
2023-03-12T03:43:43.337Z,3.85
2023-03-12T03:46:46.877Z,5.57
2023-03-12T03:49:49.712Z,9.98
2023-03-12T03:52:52.322Z,5.82
2023-03-12T03:55:54.777Z,7.57
2023-03-12T03:58:58.645Z,5.40
2023-03-12T04:02:02.319Z,5.18
2023-03-12T04:05:08.244Z,5.70
2023-03-12T04:08:11.146Z,5.65
2023-03-12T04:11:16.140Z,7.85
2023-03-12T04:14:19.950Z,6.35
2023-03-12T04:17:22.461Z,4.85
2023-03-12T04:20:25.424Z,4.40
2023-03-12T04:23:27.957Z,5.25
2023-03-12T04:26:31.510Z,9.85
2023-03-12T04:29:35.363Z,2.72
2023-03-12T04:32:37.754Z,3.53
2023-03-12T04:35:40.129Z,3.58
2023-03-12T04:38:42.447Z,5.78
2023-03-12T04:41:44.887Z,4.13
2023-03-12T04:44:52.672Z,5.20
2023-03-12T04:47:55.698Z,6.72
2023-03-12T04:51:01.190Z,5.40
2023-03-12T04:54:04.885Z,9.95
2023-03-12T04:57:07.870Z,6.35
2023-03-12T05:00:15.803Z,3.13
2023-03-12T05:03:19.115Z,5.15
2023-03-12T05:06:23.850Z,8.85
2023-03-12T05:09:26.242Z,7.25
2023-03-12T05:12:28.590Z,4.25
2023-03-12T05:15:32.260Z,5.90
2023-03-12T05:18:35.467Z,5.07
2023-03-12T05:21:40.201Z,5.15
2023-03-12T05:24:42.534Z,7.75
2023-03-12T05:27:44.999Z,2.65
2023-03-12T05:30:49.591Z,7.65
2023-03-12T05:33:53.083Z,3.95
2023-03-12T05:36:56.923Z,6.78
2023-03-12T05:40:01.221Z,8.73
2023-03-12T05:43:04.337Z,6.78
2023-03-12T05:46:09.537Z,4.40
2023-03-12T05:49:13.099Z,3.13
2023-03-12T05:52:15.470Z,5.45
2023-03-12T05:55:18.847Z,7.07
2023-03-12T05:58:21.351Z,5.18
2023-03-12T06:01:27.672Z,4.20
2023-03-12T06:04:32.182Z,4.30
2023-03-12T06:07:34.662Z,4.38
2023-03-12T06:10:38.510Z,5.45
2023-03-12T06:13:41.622Z,12.07
2023-03-12T06:16:45.554Z,4.72
2023-03-12T06:19:51.078Z,6.25
2023-03-12T06:22:54.093Z,4.43
2023-03-12T06:25:56.419Z,8.48
2023-03-12T06:28:58.700Z,8.63
2023-03-12T06:32:02.361Z,3.15
2023-03-12T06:35:07.059Z,8.82
2023-03-12T06:38:09.370Z,6.40
2023-03-12T06:41:13.468Z,6.88
2023-03-12T06:44:15.996Z,7.30
2023-03-12T06:47:19.647Z,5.88
2023-03-12T06:50:22.074Z,3.90
2023-03-12T06:53:25.797Z,12.40
2023-03-12T06:56:28.261Z,4.22
2023-03-12T06:59:30.640Z,3.75
2023-03-12T07:02:34.317Z,5.65
2023-03-12T07:05:36.677Z,5.63
2023-03-12T07:08:38.926Z,8.10
2023-03-12T07:11:41.195Z,7.38
2023-03-12T07:14:43.439Z,6.88
2023-03-12T07:17:47.232Z,6.03
2023-03-12T07:20:49.676Z,5.07
2023-03-12T07:23:52.586Z,6.38
2023-03-12T07:26:54.934Z,7.10
2023-03-12T07:29:57.182Z,7.20
2023-03-12T07:33:01.650Z,9.30
2023-03-12T07:36:04.957Z,6.40
2023-03-12T07:39:09.321Z,5.03
2023-03-12T07:42:12.852Z,6.43
2023-03-12T07:45:17.212Z,3.75
2023-03-12T07:48:26.687Z,9.95
2023-03-12T07:51:29.038Z,5.85
2023-03-12T07:54:31.513Z,7.75
2023-03-12T07:57:34.047Z,3.47
2023-03-12T08:00:36.613Z,3.70
2023-03-12T08:03:47.810Z,10.07
2023-03-12T08:06:50.410Z,5.67
2023-03-12T08:09:53.378Z,5.15
2023-03-12T08:12:55.812Z,4.82
2023-03-12T08:16:01.781Z,9.07
2023-03-12T08:19:05.691Z,10.70
2023-03-12T08:22:08.851Z,6.38
2023-03-12T08:25:11.744Z,5.18
2023-03-12T08:28:14.525Z,3.50
2023-03-12T08:31:17.198Z,7.65
2023-03-12T08:34:23.568Z,5.97
2023-03-12T08:37:28.829Z,8.23
2023-03-12T08:40:37.215Z,5.68
2023-03-12T08:43:39.979Z,5.25
2023-03-12T08:46:42.463Z,7.45
2023-03-12T08:49:46.417Z,9.52
2023-03-12T08:52:48.918Z,9.18
2023-03-12T08:55:52.648Z,8.38
2023-03-12T08:58:55.216Z,9.77
2023-03-12T09:02:11.520Z,11.02
2023-03-12T09:05:15.893Z,11.48
2023-03-12T09:08:19.822Z,10.32
2023-03-12T09:11:22.519Z,12.43
2023-03-12T09:17:47.996Z,10.43
2023-03-12T09:20:51.821Z,10.70
2023-03-12T09:23:54.310Z,9.93
2023-03-12T09:26:56.745Z,8.40
2023-03-12T09:30:00.969Z,13.18
2023-03-12T09:33:04.313Z,13.65
2023-03-12T09:36:08.829Z,11.02
2023-03-12T09:39:11.244Z,11.93
2023-03-12T09:42:20.512Z,11.98
2023-03-12T09:45:25.520Z,10.80
2023-03-12T09:48:33.070Z,14.73
2023-03-12T09:51:41.835Z,8.57
2023-03-12T09:54:50.553Z,11.07
2023-03-12T09:57:53.454Z,14.95
2023-03-12T10:01:00.909Z,12.38
2023-03-12T10:04:12.771Z,14.60
2023-03-12T10:07:19.942Z,11.93
2023-03-12T10:10:35.663Z,14.85
2023-03-12T10:13:51.142Z,17.02
2023-03-12T10:16:59.867Z,16.77
2023-03-12T10:20:27.901Z,10.20
2023-03-12T10:23:39.014Z,11.77
2023-03-12T10:26:43.862Z,11.10
2023-03-12T10:29:48.810Z,13.23
2023-03-12T10:32:54.566Z,14.15
2023-03-12T10:35:59.576Z,17.05
2023-03-12T10:39:03.966Z,12.05
2023-03-12T10:42:13.607Z,13.25
2023-03-12T10:45:24.371Z,14.18
2023-03-12T10:48:29.933Z,12.32
2023-03-12T10:51:33.212Z,11.88
2023-03-12T10:54:38.390Z,11.95
2023-03-12T10:57:42.228Z,15.75
2023-03-12T11:00:56.836Z,12.65
2023-03-12T11:04:09.368Z,11.80
2023-03-12T11:07:23.231Z,13.18
2023-03-12T11:10:38.893Z,13.18
2023-03-12T11:13:41.909Z,13.27
2023-03-12T11:16:44.641Z,11.52
2023-03-12T11:19:46.928Z,16.70
2023-03-12T11:22:53.988Z,10.43
2023-03-12T11:26:00.137Z,10.77
2023-03-12T11:29:04.795Z,9.88
2023-03-12T11:32:15.517Z,14.23
2023-03-12T11:35:25.525Z,13.10
2023-03-12T11:38:31.665Z,18.65
2023-03-12T11:41:45.183Z,15.45
2023-03-12T11:44:55.786Z,20.58
2023-03-12T11:48:05.104Z,16.67
2023-03-12T11:51:17.168Z,15.02
2023-03-12T11:57:35.072Z,15.10
2023-03-12T12:04:00.936Z,12.02
2023-03-12T12:07:13.570Z,16.42
2023-03-12T12:10:23.385Z,15.98
2023-03-12T12:13:33.581Z,13.50
2023-03-12T12:16:47.407Z,15.07
2023-03-12T12:20:00.194Z,19.75
2023-03-12T12:23:15.341Z,19.23
2023-03-12T12:26:21.847Z,14.82
2023-03-12T12:29:40.132Z,12.88
2023-03-12T12:33:02.692Z,11.85
2023-03-12T12:36:07.611Z,10.75
2023-03-12T12:39:13.554Z,16.48
2023-03-12T12:42:19.429Z,11.77
2023-03-12T12:45:24.930Z,12.95
2023-03-12T12:48:31.268Z,15.60
2023-03-12T12:51:36.671Z,13.15
2023-03-12T12:54:46.616Z,8.40
2023-03-12T12:57:53.477Z,11.93
2023-03-12T13:00:59.558Z,17.05
2023-03-12T13:04:10.837Z,9.50
2023-03-12T13:07:34.348Z,12.98
2023-03-12T13:10:48.784Z,9.50
2023-03-12T13:14:16.334Z,12.05
2023-03-12T13:17:26.928Z,13.38
2023-03-12T13:20:31.580Z,12.82
2023-03-12T13:23:38.537Z,16.05
2023-03-12T13:26:51.249Z,10.85
2023-03-12T13:29:57.246Z,13.07
2023-03-12T13:33:11.700Z,14.68
2023-03-12T13:36:25.808Z,10.10
2023-03-12T13:39:30.401Z,9.30
2023-03-12T13:42:39.452Z,16.02
2023-03-12T13:45:55.617Z,13.30
2023-03-12T13:49:02.839Z,15.40
2023-03-12T13:52:21.126Z,16.45
2023-03-12T13:55:25.933Z,12.00
2023-03-12T13:58:28.523Z,15.65
2023-03-12T14:01:35.532Z,13.90
2023-03-12T14:04:40.946Z,11.10
2023-03-12T14:08:10.718Z,13.15
2023-03-12T14:11:39.544Z,14.02
2023-03-12T14:15:04.958Z,13.77
2023-03-12T14:18:13.857Z,18.05
2023-03-12T14:21:17.776Z,10.48
2023-03-12T14:24:24.920Z,14.35
2023-03-12T14:27:29.826Z,16.55
2023-03-12T14:30:41.803Z,14.38
2023-03-12T14:33:56.253Z,9.20
2023-03-12T14:37:02.753Z,11.77
2023-03-12T14:40:08.898Z,13.07
2023-03-12T14:43:22.841Z,12.15
2023-03-12T14:46:25.295Z,17.70
2023-03-12T14:49:28.170Z,13.02
2023-03-12T14:52:34.147Z,15.55
2023-03-12T14:55:36.494Z,16.15
2023-03-12T14:58:44.156Z,9.77
2023-03-12T15:01:46.920Z,9.07
2023-03-12T15:04:50.576Z,16.83
2023-03-12T15:07:58.927Z,13.52
2023-03-12T15:11:01.386Z,14.55
2023-03-12T15:14:06.709Z,14.98
2023-03-12T15:17:15.942Z,9.85
2023-03-12T15:20:25.972Z,20.17
2023-03-12T15:23:32.321Z,9.48
2023-03-12T15:26:38.023Z,13.15
2023-03-12T15:29:41.482Z,16.85
2023-03-12T15:33:04.283Z,15.05
2023-03-12T15:36:20.554Z,11.93
2023-03-12T15:39:30.110Z,15.48
2023-03-12T15:42:39.667Z,13.57
2023-03-12T15:45:42.142Z,15.43
2023-03-12T15:48:48.108Z,13.63
2023-03-12T15:52:03.824Z,14.65
2023-03-12T15:55:23.500Z,17.00
2023-03-12T15:58:28.569Z,14.00
2023-03-12T16:01:43.832Z,15.80
2023-03-12T16:04:46.150Z,20.35
2023-03-12T16:07:48.562Z,17.27
2023-03-12T16:10:53.162Z,17.77
2023-03-12T16:14:01.425Z,19.55
2023-03-12T16:17:04.445Z,16.98
2023-03-12T16:20:11.463Z,13.05
2023-03-12T16:23:14.242Z,15.13
2023-03-12T16:26:18.012Z,24.75
2023-03-12T16:29:20.667Z,18.33
2023-03-12T16:32:23.452Z,15.27
2023-03-12T16:35:28.338Z,17.63
2023-03-12T16:38:30.811Z,15.90
2023-03-12T16:41:34.560Z,16.20
2023-03-12T16:44:37.683Z,13.38
2023-03-12T16:47:40.914Z,43.58
2023-03-12T16:50:47.181Z,214.32
2023-03-12T16:54:01.971Z,134.80
2023-03-12T16:57:17.054Z,24.73
2023-03-12T17:00:22.287Z,21.13
2023-03-12T17:03:30.752Z,19.88
2023-03-12T17:06:33.152Z,19.75
2023-03-12T17:09:35.532Z,15.15
2023-03-12T17:12:40.471Z,18.70
2023-03-12T17:15:42.801Z,19.08
2023-03-12T17:18:45.880Z,21.92
2023-03-12T17:21:48.838Z,13.32
2023-03-12T17:24:51.164Z,17.27
2023-03-12T17:27:57.671Z,17.23
2023-03-12T17:30:59.924Z,23.05
2023-03-12T17:34:04.000Z,17.92
2023-03-12T17:37:06.394Z,18.92
2023-03-12T17:40:10.999Z,13.77
2023-03-12T17:43:14.703Z,11.55
2023-03-12T17:46:17.232Z,15.57
2023-03-12T17:49:19.481Z,15.52
2023-03-12T17:52:22.038Z,47.17
2023-03-12T17:55:24.532Z,25.52
2023-03-12T17:58:28.323Z,20.13
2023-03-12T18:01:30.590Z,25.38
2023-03-12T18:04:33.107Z,15.10
2023-03-12T18:07:35.521Z,15.07
2023-03-12T18:10:40.230Z,18.75
2023-03-12T18:13:44.159Z,16.90
2023-03-12T18:16:47.117Z,22.17
2023-03-12T18:19:49.538Z,18.15
2023-03-12T18:22:52.522Z,21.23
2023-03-12T18:25:54.825Z,15.50
2023-03-12T18:28:59.422Z,18.35
2023-03-12T18:32:02.118Z,18.13
2023-03-12T18:35:05.502Z,11.15
2023-03-12T18:38:07.890Z,13.85
2023-03-12T18:41:12.386Z,16.83
2023-03-12T18:44:16.092Z,21.15
2023-03-12T18:47:18.558Z,17.10
2023-03-12T18:50:21.674Z,18.45
2023-03-12T18:53:24.156Z,19.00
2023-03-12T18:56:27.825Z,16.00
2023-03-12T18:59:32.486Z,20.83
2023-03-12T19:02:34.863Z,17.98
2023-03-12T19:05:37.396Z,12.02
2023-03-12T19:08:40.399Z,18.30
2023-03-12T19:11:42.652Z,23.33
2023-03-12T19:14:46.337Z,15.82
2023-03-12T19:17:48.634Z,15.32
2023-03-12T19:20:51.083Z,15.40
2023-03-12T19:23:55.067Z,14.57
2023-03-12T19:26:57.441Z,16.52
2023-03-12T19:30:01.155Z,15.65
2023-03-12T19:33:05.269Z,11.25
2023-03-12T19:36:08.433Z,24.15
2023-03-12T19:39:21.012Z,18.48
2023-03-12T19:42:23.956Z,15.95
2023-03-12T19:45:28.014Z,17.48
2023-03-12T19:48:30.576Z,29.27
2023-03-12T19:51:32.900Z,15.23
2023-03-12T19:54:35.288Z,19.92
2023-03-12T19:57:37.813Z,17.02
2023-03-12T20:00:41.516Z,16.60
2023-03-12T20:03:44.257Z,18.60
2023-03-12T20:06:47.414Z,18.35
2023-03-12T20:09:49.868Z,17.13
2023-03-12T20:12:52.319Z,23.02
2023-03-12T20:15:56.090Z,16.00
2023-03-12T20:18:58.535Z,21.27
2023-03-12T20:22:01.010Z,22.05
2023-03-12T20:25:03.861Z,14.50
2023-03-12T20:28:06.363Z,24.23
2023-03-12T20:31:11.440Z,18.55
2023-03-12T20:34:13.888Z,18.67
2023-03-12T20:37:16.243Z,17.00
2023-03-12T20:40:18.727Z,20.20
2023-03-12T20:43:21.175Z,13.63
2023-03-12T20:46:25.165Z,21.02
2023-03-12T20:49:27.562Z,17.13
2023-03-12T20:52:30.060Z,16.98
2023-03-12T20:55:32.678Z,19.95
2023-03-12T20:58:35.048Z,18.50
2023-03-12T21:01:39.390Z,15.43
2023-03-12T21:04:41.953Z,17.00
2023-03-12T21:07:44.467Z,13.73
2023-03-12T21:10:48.493Z,17.67
2023-03-12T21:13:51.064Z,15.68
2023-03-12T21:16:55.041Z,20.80
2023-03-12T21:19:57.463Z,12.85
2023-03-12T21:23:00.893Z,21.08
2023-03-12T21:26:07.206Z,20.33
2023-03-12T21:29:10.875Z,18.10
2023-03-12T21:32:14.494Z,18.45
2023-03-12T21:35:19.902Z,20.58
2023-03-12T21:38:22.502Z,18.52
2023-03-12T21:41:24.855Z,23.58
2023-03-12T21:44:27.458Z,25.98
2023-03-12T21:47:31.257Z,26.33
2023-03-12T21:50:33.690Z,18.48
2023-03-12T21:53:37.200Z,21.95
2023-03-12T21:56:41.693Z,23.15
2023-03-12T21:59:45.129Z,14.98
2023-03-12T22:02:48.923Z,21.80
2023-03-12T22:05:51.928Z,17.10
2023-03-12T22:08:56.000Z,22.77
2023-03-12T22:11:58.445Z,22.00
2023-03-12T22:15:00.839Z,19.55
2023-03-12T22:18:04.645Z,13.57
2023-03-12T22:21:07.833Z,19.05
2023-03-12T22:24:10.684Z,19.02
2023-03-12T22:27:13.093Z,21.38
2023-03-12T22:30:15.813Z,21.08
2023-03-12T22:33:19.493Z,26.52
2023-03-12T22:36:22.413Z,19.58
2023-03-12T22:39:24.915Z,16.17
2023-03-12T22:42:27.392Z,12.20
2023-03-12T22:45:29.719Z,14.45
2023-03-12T22:48:33.581Z,23.05
2023-03-12T22:51:35.952Z,15.15
2023-03-12T22:54:38.196Z,13.68
2023-03-12T22:57:40.553Z,24.77
2023-03-12T23:00:42.803Z,15.55
2023-03-12T23:03:47.043Z,13.35
2023-03-12T23:06:49.288Z,20.65
2023-03-12T23:09:51.696Z,10.18
2023-03-12T23:12:53.917Z,15.35
2023-03-12T23:16:12.025Z,14.55
2023-03-12T23:19:15.747Z,12.23
2023-03-12T23:22:18.080Z,16.17
2023-03-12T23:25:20.359Z,11.35
2023-03-12T23:28:23.250Z,17.15
2023-03-12T23:31:27.680Z,9.18
2023-03-12T23:34:33.347Z,17.05
2023-03-12T23:37:35.728Z,15.18
2023-03-12T23:40:37.997Z,20.63
2023-03-12T23:43:40.579Z,14.13
2023-03-12T23:46:45.027Z,15.20
2023-03-12T23:49:48.651Z,14.35
2023-03-12T23:52:50.944Z,13.63
2023-03-12T23:55:57.067Z,16.55
2023-03-12T23:58:59.451Z,15.02
